Westville, Oklahoma
Current Conditions -  °F | °C
As of 9:15 PM on Tuesday 25 Nov 2014 (Local Time) from KSLG Reporting Station
Clear Clear  
Wind Chill: 31°   Ceiling: Unl
Heat Index: 36°   Visibility: 10mi
Dew Point: 21°   Wind: 6mph
Humidity: 56%   Direction: 110°ESE
Pressure: 30.14"   Gusts: NA
Location:  35.99°N, 94.57°W
Report Text: KSLG 260315Z AUTO 11005KT 10SM CLR 02/M06 A3014 RMK AO1
Loading
Personal Weather Stations






























Interactive Weather Map New forecast layout! Learn more

10-Day Weather Forecast

Advertisements
Track Severe Weather on mobile